createdAt,value
2018-08-18T00:02:03.105Z,4.80
2018-08-18T00:04:37.545Z,4.50
2018-08-18T00:07:11.891Z,5.03
2018-08-18T00:09:47.560Z,4.93
2018-08-18T00:12:28.972Z,4.53
2018-08-18T00:15:10.841Z,4.73
2018-08-18T00:17:45.432Z,4.20
2018-08-18T00:20:22.639Z,4.70
2018-08-18T00:22:57.038Z,4.80
2018-08-18T00:25:44.428Z,5.90
2018-08-18T00:28:21.165Z,4.40
2018-08-18T00:30:57.160Z,5.43
2018-08-18T00:33:32.712Z,5.10
2018-08-18T00:36:07.048Z,4.93
2018-08-18T00:38:41.706Z,4.70
2018-08-18T00:41:16.038Z,5.47
2018-08-18T00:43:50.555Z,6.00
2018-08-18T00:46:26.203Z,6.33
2018-08-18T00:49:02.153Z,5.30
2018-08-18T00:51:42.768Z,4.87
2018-08-18T00:54:18.657Z,5.97
2018-08-18T00:56:59.017Z,4.80
2018-08-18T00:59:39.100Z,5.60
2018-08-18T01:02:14.492Z,5.83
2018-08-18T01:04:54.304Z,6.07
2018-08-18T01:07:32.151Z,6.13
2018-08-18T01:10:06.597Z,4.87
2018-08-18T01:12:42.490Z,6.00
2018-08-18T01:15:21.848Z,5.50
2018-08-18T01:17:56.733Z,5.70
2018-08-18T01:20:31.515Z,5.43
2018-08-18T01:25:47.740Z,6.53
2018-08-18T01:28:22.342Z,5.73
2018-08-18T01:31:08.126Z,6.07
2018-08-18T01:33:44.315Z,5.50
2018-08-18T01:36:18.799Z,6.53
2018-08-18T01:38:53.205Z,5.20
2018-08-18T01:41:27.703Z,5.87
2018-08-18T01:44:19.263Z,5.87
2018-08-18T01:46:54.462Z,5.70
2018-08-18T01:52:25.111Z,6.33
2018-08-18T01:55:01.005Z,6.17
2018-08-18T01:57:36.731Z,6.37
2018-08-18T02:00:27.147Z,5.80
2018-08-18T02:03:07.832Z,5.70
2018-08-18T03:43:49.071Z,6.03
2018-08-18T03:46:23.547Z,6.27
2018-08-18T03:48:59.414Z,6.33
2018-08-18T03:51:41.103Z,6.27
2018-08-18T03:54:17.088Z,6.70
2018-08-18T03:56:52.317Z,6.23
2018-08-18T03:59:26.752Z,6.30
2018-08-18T04:02:01.604Z,6.33
2018-08-18T04:04:37.203Z,7.07
2018-08-18T04:07:11.700Z,5.40
2018-08-18T04:12:29.515Z,6.63
2018-08-18T04:15:04.083Z,5.60
2018-08-18T04:17:39.998Z,5.80
2018-08-18T04:20:15.018Z,6.07
2018-08-18T04:22:51.782Z,6.50
2018-08-18T04:25:26.227Z,6.47
2018-08-18T04:28:01.166Z,6.23
2018-08-18T04:30:35.483Z,5.60
2018-08-18T04:33:15.936Z,6.20
2018-08-18T04:35:57.596Z,5.93
2018-08-18T04:38:32.022Z,6.30
2018-08-18T04:41:08.591Z,6.20
2018-08-18T04:43:44.601Z,6.37
2018-08-18T04:46:19.135Z,5.17
2018-08-18T04:48:54.948Z,5.40
2018-08-18T04:51:30.792Z,6.10
2018-08-18T04:54:06.647Z,6.50
2018-08-18T04:56:41.614Z,5.47
2018-08-18T04:59:16.029Z,5.50
2018-08-18T05:01:50.638Z,5.37
2018-08-18T05:04:25.145Z,5.77
2018-08-18T05:06:59.723Z,6.17
2018-08-18T05:09:35.443Z,6.00
2018-08-18T05:12:17.216Z,5.57
2018-08-18T05:14:53.235Z,6.10
2018-08-18T05:17:29.023Z,6.10
2018-08-18T05:20:12.613Z,5.30
2018-08-18T05:22:47.403Z,5.47
2018-08-18T05:25:28.789Z,5.40
2018-08-18T05:28:03.671Z,5.27
2018-08-18T05:30:38.049Z,5.70
2018-08-18T05:33:16.754Z,6.20
2018-08-18T05:35:52.414Z,5.80
2018-08-18T05:38:26.859Z,6.00
2018-08-18T05:41:03.945Z,6.40
2018-08-18T05:43:38.436Z,6.20
2018-08-18T05:46:12.903Z,5.70
2018-08-18T05:48:55.647Z,7.50
2018-08-18T05:51:35.306Z,5.87
2018-08-18T05:54:13.450Z,5.70
2018-08-18T05:56:48.261Z,6.40
2018-08-18T05:59:22.680Z,6.77
2018-08-18T06:01:57.508Z,6.90
2018-08-18T06:04:31.847Z,5.90
2018-08-18T06:07:06.356Z,5.90
2018-08-18T06:09:42.163Z,5.83
2018-08-18T06:12:20.135Z,7.00
2018-08-18T06:14:54.508Z,6.00
2018-08-18T06:17:32.094Z,6.07
2018-08-18T06:20:07.287Z,6.77
2018-08-18T06:22:41.797Z,6.50
2018-08-18T06:25:16.378Z,6.17
2018-08-18T06:27:51.759Z,6.57
2018-08-18T06:30:26.276Z,5.90
2018-08-18T06:33:01.628Z,8.20
2018-08-18T06:35:37.280Z,7.37
2018-08-18T06:38:12.118Z,7.90
2018-08-18T06:41:03.857Z,5.70
2018-08-18T06:43:38.194Z,6.70
2018-08-18T06:46:13.007Z,6.27
2018-08-18T06:48:56.211Z,6.27
2018-08-18T06:51:32.075Z,6.87
2018-08-18T06:54:07.896Z,7.43
2018-08-18T06:56:42.356Z,5.60
2018-08-18T06:59:17.782Z,6.90
2018-08-18T07:01:52.272Z,6.27
2018-08-18T07:04:27.623Z,6.47
2018-08-18T07:07:02.350Z,7.10
2018-08-18T07:09:38.312Z,6.50
2018-08-18T07:12:14.011Z,5.73
2018-08-18T07:14:48.666Z,6.60
2018-08-18T07:17:23.400Z,5.70
2018-08-18T07:19:59.316Z,6.40
2018-08-18T07:22:34.608Z,6.90
2018-08-18T07:25:09.360Z,6.43
2018-08-18T07:27:44.535Z,6.00
2018-08-18T07:30:18.935Z,7.10
2018-08-18T07:32:54.748Z,6.60
2018-08-18T07:35:30.572Z,6.23
2018-08-18T07:38:05.199Z,6.33
2018-08-18T07:40:42.497Z,6.43
2018-08-18T07:43:22.854Z,6.13
2018-08-18T07:46:00.175Z,6.33
2018-08-18T07:48:51.022Z,5.70
2018-08-18T07:51:26.768Z,6.60
2018-08-18T07:54:02.715Z,6.97
2018-08-18T07:56:37.129Z,6.80
2018-08-18T07:59:12.331Z,6.77
2018-08-18T08:01:46.804Z,5.77
2018-08-18T08:04:21.535Z,7.77
2018-08-18T08:06:57.605Z,7.30
2018-08-18T08:09:33.456Z,7.27
2018-08-18T08:12:10.164Z,7.43
2018-08-18T08:14:44.660Z,7.43
2018-08-18T08:17:18.911Z,7.23
2018-08-18T08:19:53.521Z,7.47
2018-08-18T08:22:29.460Z,7.23
2018-08-18T08:25:05.124Z,7.67
2018-08-18T08:27:40.438Z,6.00
2018-08-18T08:30:15.937Z,7.10
2018-08-18T08:32:51.519Z,7.63
2018-08-18T08:35:27.490Z,5.93
2018-08-18T08:38:01.788Z,6.83
2018-08-18T08:40:37.998Z,6.37
2018-08-18T08:43:26.568Z,5.83
2018-08-18T08:46:01.056Z,6.77
2018-08-18T08:48:35.416Z,6.53
2018-08-18T08:51:11.455Z,6.27
2018-08-18T08:53:49.559Z,6.60
2018-08-18T08:56:29.251Z,5.87
2018-08-18T08:59:04.101Z,5.50
2018-08-18T09:01:38.480Z,5.77
2018-08-18T09:04:14.625Z,5.97
2018-08-18T09:06:53.284Z,5.40
2018-08-18T09:09:29.171Z,5.50
2018-08-18T09:12:07.202Z,5.73
2018-08-18T09:14:41.827Z,4.80
2018-08-18T09:17:16.208Z,5.90
2018-08-18T09:19:50.951Z,6.00
2018-08-18T09:22:27.456Z,5.67
2018-08-18T09:25:09.312Z,5.70
2018-08-18T09:27:48.000Z,5.80
2018-08-18T09:30:35.288Z,6.20
2018-08-18T09:33:17.088Z,7.23
2018-08-18T09:36:00.091Z,6.27
2018-08-18T09:38:34.539Z,5.87
2018-08-18T09:41:10.595Z,5.43
2018-08-18T09:43:46.840Z,6.00
2018-08-18T09:46:21.448Z,5.77
2018-08-18T09:49:02.036Z,5.30
2018-08-18T09:51:40.863Z,6.13
2018-08-18T09:54:16.409Z,5.23
2018-08-18T09:56:51.003Z,5.00
2018-08-18T09:59:25.591Z,5.53
2018-08-18T10:02:01.422Z,6.60
2018-08-18T10:04:36.088Z,6.03
2018-08-18T10:07:11.699Z,6.13
2018-08-18T10:09:47.541Z,5.13
2018-08-18T10:12:23.548Z,5.57
2018-08-18T10:14:58.271Z,5.77
2018-08-18T10:17:32.748Z,5.70
2018-08-18T10:20:07.151Z,4.93
2018-08-18T10:22:43.844Z,4.43
2018-08-18T10:25:18.220Z,6.03
2018-08-18T10:27:52.818Z,4.80
2018-08-18T10:30:28.949Z,4.90
2018-08-18T10:35:46.594Z,5.40
2018-08-18T10:38:21.134Z,5.73
2018-08-18T10:40:56.921Z,5.30
2018-08-18T10:43:32.115Z,5.40
2018-08-18T10:46:06.481Z,4.47
2018-08-18T10:48:41.489Z,4.60
2018-08-18T10:51:29.122Z,12.77
2018-08-18T10:54:05.027Z,10.23
2018-08-18T10:56:39.379Z,7.30
2018-08-18T10:59:25.052Z,5.57
2018-08-18T11:02:06.463Z,5.10
2018-08-18T11:04:41.228Z,4.93
2018-08-18T11:07:15.846Z,5.70
2018-08-18T11:09:59.825Z,4.67
2018-08-18T11:12:37.903Z,4.90
2018-08-18T11:15:13.054Z,7.73
2018-08-18T11:17:49.005Z,8.90
2018-08-18T11:20:24.769Z,7.70
2018-08-18T11:23:06.406Z,5.30
2018-08-18T11:25:57.735Z,5.13
2018-08-18T11:28:32.822Z,6.40
2018-08-18T11:31:07.583Z,4.83
2018-08-18T11:33:44.986Z,5.20
2018-08-18T11:36:20.839Z,5.00
2018-08-18T11:38:55.368Z,4.37
2018-08-18T11:41:31.310Z,4.80
2018-08-18T11:44:05.815Z,4.70
2018-08-18T11:46:44.438Z,4.47
2018-08-18T11:49:20.924Z,4.37
2018-08-18T11:51:56.777Z,4.10
2018-08-18T11:54:32.578Z,3.63
2018-08-18T11:57:09.024Z,4.57
2018-08-18T11:59:43.611Z,4.60
2018-08-18T12:02:18.046Z,4.27
2018-08-18T12:04:52.798Z,4.17
2018-08-18T12:07:34.055Z,4.40
2018-08-18T12:10:10.219Z,4.70
2018-08-18T12:12:50.991Z,4.67
2018-08-18T12:15:25.595Z,3.60
2018-08-18T12:17:59.672Z,4.23
2018-08-18T12:20:33.921Z,4.23
2018-08-18T12:23:07.999Z,4.20
2018-08-18T12:25:42.506Z,4.23
2018-08-18T12:28:16.542Z,3.67
2018-08-18T12:30:51.033Z,4.27
2018-08-18T12:33:27.773Z,4.20
2018-08-18T12:36:03.837Z,3.60
2018-08-18T12:38:40.711Z,3.90
2018-08-18T12:41:16.290Z,4.83
2018-08-18T12:43:52.084Z,4.93
2018-08-18T12:46:35.370Z,4.40
2018-08-18T12:49:10.754Z,3.70
2018-08-18T12:51:46.585Z,4.07
2018-08-18T12:54:30.311Z,3.60
2018-08-18T12:57:05.084Z,3.60
2018-08-18T12:59:39.334Z,4.10
2018-08-18T13:02:13.434Z,4.10
2018-08-18T13:04:48.010Z,4.00
2018-08-18T13:07:22.212Z,3.90
2018-08-18T13:10:07.611Z,4.20
2018-08-18T13:12:43.263Z,3.70
2018-08-18T13:15:19.210Z,3.90
2018-08-18T13:17:53.346Z,4.13
2018-08-18T13:20:27.724Z,4.10
2018-08-18T13:23:03.290Z,3.90
2018-08-18T13:25:38.738Z,4.50
2018-08-18T13:28:13.029Z,3.90
2018-08-18T13:30:47.193Z,4.37
2018-08-18T13:33:34.902Z,4.43
2018-08-18T13:36:10.349Z,4.43
2018-08-18T13:38:44.628Z,4.43
2018-08-18T13:41:19.814Z,4.00
2018-08-18T13:43:54.078Z,3.60
2018-08-18T13:46:34.231Z,4.00
2018-08-18T13:49:11.142Z,3.90
2018-08-18T13:51:46.501Z,3.90
2018-08-18T13:54:21.945Z,4.17
2018-08-18T13:56:56.245Z,3.87
2018-08-18T13:59:38.194Z,4.27
2018-08-18T14:02:12.483Z,4.10
2018-08-18T14:04:46.834Z,3.70
2018-08-18T14:07:22.036Z,3.50
2018-08-18T14:10:07.644Z,3.83
2018-08-18T14:12:43.181Z,4.10
2018-08-18T14:15:18.751Z,4.23
2018-08-18T14:17:57.932Z,3.63
2018-08-18T14:20:34.977Z,4.03
2018-08-18T14:23:09.350Z,5.30
2018-08-18T14:25:44.591Z,6.17
2018-08-18T14:28:18.845Z,4.97
2018-08-18T14:30:53.207Z,4.10
2018-08-18T14:33:28.802Z,5.10
2018-08-18T14:36:07.445Z,3.93
2018-08-18T14:38:42.923Z,4.07
2018-08-18T14:41:28.442Z,4.83
2018-08-18T14:44:02.543Z,4.40
2018-08-18T14:46:37.148Z,5.10
2018-08-18T14:49:21.788Z,4.30
2018-08-18T14:51:57.443Z,4.70
2018-08-18T14:54:33.505Z,5.57
2018-08-18T14:57:07.638Z,4.33
2018-08-18T14:59:41.806Z,4.20
2018-08-18T15:02:16.411Z,5.13
2018-08-18T15:04:50.531Z,4.67
2018-08-18T15:07:37.100Z,4.93
2018-08-18T15:10:17.396Z,4.73
2018-08-18T15:12:53.006Z,4.80
2018-08-18T15:15:28.931Z,4.63
2018-08-18T15:18:04.555Z,4.53
2018-08-18T15:20:39.477Z,4.70
2018-08-18T15:23:15.866Z,5.07
2018-08-18T15:25:51.127Z,4.57
2018-08-18T15:28:27.597Z,5.00
2018-08-18T15:31:02.164Z,4.77
2018-08-18T15:33:38.568Z,3.83
2018-08-18T15:36:18.393Z,4.73
2018-08-18T15:38:53.819Z,4.67
2018-08-18T15:41:29.536Z,4.47
2018-08-18T15:44:08.115Z,5.27
2018-08-18T15:46:42.357Z,4.03
2018-08-18T15:49:17.824Z,4.80
2018-08-18T15:51:53.771Z,5.17
2018-08-18T15:54:29.993Z,4.40
2018-08-18T15:57:04.102Z,4.90
2018-08-18T15:59:38.355Z,5.10
2018-08-18T16:02:12.650Z,4.93
2018-08-18T16:04:48.128Z,4.63
2018-08-18T16:07:22.967Z,5.03
2018-08-18T16:10:07.973Z,4.90
2018-08-18T16:12:43.366Z,5.33
2018-08-18T16:15:20.698Z,4.63
2018-08-18T16:17:55.066Z,4.73
2018-08-18T16:20:33.253Z,4.53
2018-08-18T16:23:11.806Z,4.20
2018-08-18T16:25:47.409Z,4.57
2018-08-18T16:28:26.099Z,4.67
2018-08-18T16:31:00.654Z,4.47
2018-08-18T16:33:36.344Z,4.17
2018-08-18T16:36:10.622Z,4.40
2018-08-18T16:38:45.813Z,4.13
2018-08-18T16:41:21.508Z,4.67
2018-08-18T16:43:55.646Z,5.20
2018-08-18T16:46:31.618Z,5.07
2018-08-18T16:49:14.803Z,5.50
2018-08-18T16:51:55.167Z,4.57
2018-08-18T16:54:31.714Z,16.00
2018-08-18T16:57:05.834Z,16.80
2018-08-18T16:59:40.076Z,6.13
2018-08-18T17:02:24.200Z,4.20
2018-08-18T17:04:58.767Z,4.93
2018-08-18T17:07:35.766Z,5.37
2018-08-18T17:10:11.329Z,5.10
2018-08-18T17:12:46.759Z,5.03
2018-08-18T17:15:22.440Z,4.43
2018-08-18T17:17:56.548Z,4.40
2018-08-18T17:20:31.604Z,4.73
2018-08-18T17:23:05.695Z,4.53
2018-08-18T17:25:43.348Z,4.07
2018-08-18T17:28:17.586Z,5.30
2018-08-18T17:30:52.706Z,4.50
2018-08-18T17:33:28.707Z,5.27
2018-08-18T17:36:03.203Z,4.50
2018-08-18T17:38:37.888Z,5.17
2018-08-18T17:41:13.960Z,5.43
2018-08-18T17:43:49.600Z,4.70
2018-08-18T17:46:23.978Z,5.20
2018-08-18T17:51:49.867Z,5.33
2018-08-18T17:54:25.576Z,5.10
2018-08-18T17:56:59.826Z,5.57
2018-08-18T17:59:34.432Z,4.87
2018-08-18T18:02:09.910Z,5.20
2018-08-18T18:04:44.070Z,5.47
2018-08-18T18:07:19.522Z,4.73
2018-08-18T18:10:00.870Z,5.10
2018-08-18T18:12:36.977Z,5.03
2018-08-18T18:15:45.669Z,6.50
2018-08-18T18:18:21.643Z,5.53
2018-08-18T18:20:56.465Z,4.70
2018-08-18T18:23:30.992Z,5.10
2018-08-18T18:26:07.584Z,4.73
2018-08-18T18:28:42.647Z,5.40
2018-08-18T18:31:17.573Z,5.30
2018-08-18T18:33:58.091Z,5.33
2018-08-18T18:36:35.512Z,5.13
2018-08-18T18:39:17.968Z,4.63
2018-08-18T18:41:53.808Z,4.80
2018-08-18T18:44:29.615Z,5.33
2018-08-18T18:47:05.535Z,4.93
2018-08-18T18:49:42.822Z,5.60
2018-08-18T18:52:18.658Z,5.87
2018-08-18T18:54:59.760Z,5.30
2018-08-18T18:57:34.300Z,5.80
2018-08-18T19:00:09.231Z,5.37
2018-08-18T19:02:44.088Z,5.67
2018-08-18T19:05:23.815Z,5.37
2018-08-18T19:08:10.080Z,5.80
2018-08-18T19:10:46.272Z,5.20
2018-08-18T19:13:22.414Z,5.70
2018-08-18T19:15:58.575Z,5.43
2018-08-18T19:18:32.996Z,6.40
2018-08-18T19:21:07.442Z,5.63
2018-08-18T19:23:42.090Z,5.90
2018-08-18T19:26:16.880Z,6.60
2018-08-18T19:28:51.710Z,6.00
2018-08-18T19:31:32.711Z,5.70
2018-08-18T19:34:12.763Z,5.90
2018-08-18T19:37:00.215Z,6.07
2018-08-18T19:39:37.380Z,5.87
2018-08-18T19:42:18.356Z,5.33
2018-08-18T19:44:53.181Z,5.60
2018-08-18T19:47:36.311Z,5.77
2018-08-18T19:50:12.280Z,5.87
2018-08-18T19:52:55.883Z,5.23
2018-08-18T19:55:31.944Z,5.97
2018-08-18T19:58:06.259Z,6.17
2018-08-18T20:00:40.664Z,5.83
2018-08-18T20:03:15.972Z,6.03
2018-08-18T20:05:51.648Z,5.80
2018-08-18T20:08:28.578Z,6.00
2018-08-18T20:11:04.220Z,5.90
2018-08-18T20:13:39.941Z,6.30
2018-08-18T20:16:15.879Z,6.13
2018-08-18T20:18:50.321Z,6.23
2018-08-18T20:21:26.764Z,6.10
2018-08-18T20:24:01.353Z,8.23
2018-08-18T20:26:37.464Z,6.87
2018-08-18T20:29:11.927Z,5.50
2018-08-18T20:31:56.738Z,5.53
2018-08-18T20:34:33.101Z,5.97
2018-08-18T20:37:20.368Z,5.60
2018-08-18T20:39:57.021Z,6.37
2018-08-18T20:42:38.481Z,5.13
2018-08-18T20:45:13.729Z,6.33
2018-08-18T20:47:49.971Z,6.47
2018-08-18T20:50:26.059Z,6.27
2018-08-18T20:53:08.595Z,6.50
2018-08-18T20:55:46.482Z,5.50
2018-08-18T20:58:22.470Z,5.00
2018-08-18T21:00:56.928Z,5.93
2018-08-18T21:03:46.229Z,6.80
2018-08-18T21:06:22.315Z,5.77
2018-08-18T21:08:58.352Z,6.47
2018-08-18T21:11:33.914Z,6.30
2018-08-18T21:14:09.586Z,6.40
2018-08-18T21:16:46.348Z,5.90
2018-08-18T21:19:27.934Z,6.60
2018-08-18T21:22:04.097Z,6.47
2018-08-18T21:24:38.763Z,6.20
2018-08-18T21:27:13.465Z,6.80
2018-08-18T21:29:47.908Z,6.73
2018-08-18T21:32:23.483Z,6.70
2018-08-18T21:34:59.208Z,7.70
2018-08-18T21:37:33.767Z,6.27
2018-08-18T21:40:12.571Z,7.60
2018-08-18T21:42:47.415Z,7.07
2018-08-18T21:45:22.068Z,5.93
2018-08-18T21:47:56.841Z,6.93
2018-08-18T21:50:41.687Z,6.60
2018-08-18T21:53:17.486Z,6.30
2018-08-18T21:55:53.487Z,7.20
2018-08-18T21:58:34.580Z,7.07
2018-08-18T22:01:37.452Z,7.60
2018-08-18T22:04:12.235Z,6.60
2018-08-18T22:06:46.787Z,6.50
2018-08-18T22:09:28.898Z,7.17
2018-08-18T22:12:09.507Z,6.40
2018-08-18T22:14:44.074Z,7.80
2018-08-18T22:17:19.905Z,6.97
2018-08-18T22:19:54.184Z,7.67
2018-08-18T22:22:28.775Z,6.83
2018-08-18T22:25:04.792Z,6.77
2018-08-18T22:27:39.327Z,7.60
2018-08-18T22:30:15.079Z,6.87
2018-08-18T22:32:50.951Z,6.73
2018-08-18T22:35:26.826Z,7.33
2018-08-18T22:38:01.152Z,7.40
2018-08-18T22:40:37.175Z,6.50
2018-08-18T22:43:11.627Z,6.80
2018-08-18T22:45:45.913Z,6.10
2018-08-18T22:48:20.288Z,6.50
2018-08-18T22:50:56.322Z,6.83
2018-08-18T22:53:35.149Z,7.47
2018-08-18T22:56:11.023Z,6.67
2018-08-18T22:58:54.402Z,6.27
2018-08-18T23:01:28.447Z,7.50
2018-08-18T23:04:03.642Z,5.63
2018-08-18T23:06:38.927Z,5.83
2018-08-18T23:09:14.390Z,6.20
2018-08-18T23:11:50.176Z,5.20
2018-08-18T23:14:26.232Z,5.60
2018-08-18T23:17:02.143Z,5.90
2018-08-18T23:19:36.599Z,5.93
2018-08-18T23:22:22.486Z,5.93
2018-08-18T23:24:58.448Z,6.63
2018-08-18T23:27:32.943Z,6.40
2018-08-18T23:30:08.531Z,5.90
2018-08-18T23:32:42.807Z,5.90
2018-08-18T23:35:18.480Z,5.53
2018-08-18T23:37:53.187Z,6.20
2018-08-18T23:40:29.425Z,5.57
2018-08-18T23:43:03.998Z,6.20
2018-08-18T23:45:43.668Z,5.87
2018-08-18T23:48:18.091Z,6.33
2018-08-18T23:50:53.819Z,6.00
2018-08-18T23:53:28.280Z,6.77
2018-08-18T23:56:04.072Z,6.00
2018-08-18T23:58:39.971Z,5.70
